Gulf Mews — C6VQ2 — position and weather

sailwx.info

Track history (hours):
 
Tides and Currents Weather Stations Pressure Air Temp Water Temp Dewpoint Dewpoint Depression Visibility Wind Speed Wind Dir Waves Ship Positions

Gulf Mews

Last reported at 2017-Sep-18 07:32 UTC. Time now 2017-Sep-26 09:28 UTC.
Position N 29°45' W 095°06'.
Warning: this ship's position is 8 days out of date.

Length 184 m; draft 7.5 m.

Type: Ship. MMSI: 309198853.

Date/timePositionNaut miles runAvg speedWind from/ knotsBaromVisibWave heightAir tempDewpointWater temp
2017-Sep-18 07:32N 29°45' W 095°06'0 0.0
2017-Sep-18 07:30N 29°45' W 095°06'1 2.5
2017-Sep-18 07:00N 29°46' W 095°05'4 8.3
2017-Sep-18 06:31N 29°43' W 095°01'510.0
2017-Sep-18 06:01N 29°39' W 094°58'612.4
2017-Sep-18 05:30N 29°34' W 094°55'612.5
2017-Sep-18 05:00N 29°28' W 094°51'612.5
2017-Sep-18 04:30N 29°23' W 094°48'12 0.5
2017-Sep-17 02:22N 29°19' W 094°35'0 0.1
2017-Sep-17 01:58N 29°19' W 094°35'0 0.0
2017-Sep-16 06:28N 29°19' W 094°35'2 0.1
2017-Sep-15 04:41N 29°19' W 094°38'710.3
2017-Sep-15 04:00N 29°21' W 094°45'5 9.2
2017-Sep-15 03:30N 29°22' W 094°50'3 0.2
2017-Sep-14 11:49N 29°23' W 094°53'0 0.5
2017-Sep-14 11:30N 29°23' W 094°53'2 4.2
2017-Sep-14 11:00N 29°22' W 094°51'  
Track history (hours):
 
Tides and Currents Weather Stations Pressure Air Temp Water Temp Dewpoint Dewpoint Depression Visibility Wind Speed Wind Dir Waves Ship Positions

Gulf Mews

Last reported at 2017-Sep-18 07:32 UTC. Time now 2017-Sep-26 09:28 UTC.
Position N 29°45' W 095°06'.
Warning: this ship's position is 8 days out of date.

Length 184 m; draft 7.5 m.

Type: Ship. MMSI: 309198853.

Date/timePositionNaut miles runAvg speedWind from/ knotsBaromVisibWave heightAir tempDewpointWater temp
2017-Sep-18 07:32N 29°45' W 095°06'0 0.0
2017-Sep-18 07:30N 29°45' W 095°06'1 2.5
2017-Sep-18 07:00N 29°46' W 095°05'4 8.3
2017-Sep-18 06:31N 29°43' W 095°01'510.0
2017-Sep-18 06:01N 29°39' W 094°58'612.4
2017-Sep-18 05:30N 29°34' W 094°55'612.5
2017-Sep-18 05:00N 29°28' W 094°51'612.5
2017-Sep-18 04:30N 29°23' W 094°48'12 0.5
2017-Sep-17 02:22N 29°19' W 094°35'0 0.1
2017-Sep-17 01:58N 29°19' W 094°35'0 0.0
2017-Sep-16 06:28N 29°19' W 094°35'2 0.1
2017-Sep-15 04:41N 29°19' W 094°38'710.3
2017-Sep-15 04:00N 29°21' W 094°45'5 9.2
2017-Sep-15 03:30N 29°22' W 094°50'3 0.2
2017-Sep-14 11:49N 29°23' W 094°53'0 0.5
2017-Sep-14 11:30N 29°23' W 094°53'2 4.2
2017-Sep-14 11:00N 29°22' W 094°51'  

Dump ship's entire track history